Flight Track Log - Related Links

Times and Time Zones

All times are in EDT time to prevent confusion due to time zone crossing. See the EJA982 flight status page for this flight to view local times or setup timezone preferences in your user account.

Time Position Orientation Groundspeed Altitude Reporting Facility
EDT Latitude Longitude Course Direction KTS MPH feet Rate Location/Type
Thu 02:11:56 PM 38.4378 -122.7733 158° South 226 260 4,700  Level Oakland Center
Thu 02:12:58 PM 38.3706 -122.7353 156° South 262 302 7,900 1,610 Climbing Oakland Center
Thu 02:13:59 PM 38.3414 -122.6400 111° Southeast 282 325 8,000 49 Climbing Oakland Center
Thu 02:15:00 PM 38.1936 -122.4253 150° Southeast  Level Estimated
Thu 02:15:01 PM 38.3133 -122.5442 110° East 286 329 8,000  Level Oakland Center
Thu 02:16:00 PM 38.1207 -122.4223 178° South  Level FlightAware Approximate
Thu 02:16:03 PM 38.2850 -122.4486 111° Southeast 288 331 7,900  Level Oakland Center
Thu 02:17:04 PM 38.2567 -122.3533 111° Southeast 286 329 8,000 49 Climbing Oakland Center
Thu 02:18:06 PM 38.2311 -122.2581 109° East 284 327 8,000  Level Oakland Center
Thu 02:19:08 PM 38.1972 -122.1439 111° Southeast 286 329 8,000  Level Oakland Center
Thu 02:20:09 PM 38.1678 -122.0475 111° Southeast 289 333 8,000 49 Level Oakland Center
Thu 02:21:11 PM 38.1389 -121.9525 111° Southeast 289 333 8,100 -97 Climbing Oakland Center
Thu 02:22:13 PM 38.1108 -121.8550 110° East 293 337 7,800 -1,024 Descending Oakland Center
Thu 02:23:14 PM 38.0836 -121.7608 110° East 288 331 6,000 -1,415 Descending Oakland Center
Thu 02:24:16 PM 38.0400 -121.6850 126° Southeast 284 327 4,900 -484 Descending Oakland Center
Thu 02:25:18 PM 37.9831 -121.6194 138° Southeast 283 326 5,000 48 Climbing Oakland Center
Thu 02:26:20 PM 37.9236 -121.5514 138° Southeast 282 325 5,000  Level Oakland Center
Thu 02:27:05 PM 37.8500 -121.5167 160° South 281 323 5,000 -571 Level Northern Cal TRACON
Thu 02:28:05 PM 37.7833 -121.5167 180° South 276 318 4,000 -700 Descending Northern Cal TRACON
Thu 02:29:05 PM 37.7167 -121.5500 202° Southwest 255 293 3,600 -347 Descending Northern Cal TRACON
Thu 02:30:06 PM 37.6833 -121.6167 238° Southwest 233 268 3,300 -645 Descending Northern Cal TRACON
Thu 02:31:06 PM 37.7000 -121.6833 288° West 211 243 2,300 -900 Descending Northern Cal TRACON
Thu 02:32:06 PM 37.7000 -121.7500 270° West 165 190 1,500 -400 Descending Northern Cal TRACON
Thu 02:33:06 PM 37.6833 -121.7833 238° Southwest 143 165 1,500  Level Northern Cal TRACON

Login

Don't have an account? Register now (free) for customized features, flight alerts, and more!